sensor_id;sensor_type;location;lat;lon;timestamp;temperature;humidity
59208;DHT22;44977;53.132;6.408;2024-01-15T00:01:53;2.20;99.90
59208;DHT22;44977;53.132;6.408;2024-01-15T00:06:53;2.30;99.90
59208;DHT22;44977;53.132;6.408;2024-01-15T00:11:54;2.30;99.90
59208;DHT22;44977;53.132;6.408;2024-01-15T00:16:55;2.20;99.90
59208;DHT22;44977;53.132;6.408;2024-01-15T00:21:55;2.20;99.90
59208;DHT22;44977;53.132;6.408;2024-01-15T00:26:57;2.10;99.90
59208;DHT22;44977;53.132;6.408;2024-01-15T00:31:58;2.10;99.90
59208;DHT22;44977;53.132;6.408;2024-01-15T00:36:59;2.10;99.90
59208;DHT22;44977;53.132;6.408;2024-01-15T00:41:59;2.00;99.90
59208;DHT22;44977;53.132;6.408;2024-01-15T00:47:00;1.90;99.90
59208;DHT22;44977;53.132;6.408;2024-01-15T00:52:02;1.80;99.90
59208;DHT22;44977;53.132;6.408;2024-01-15T00:57:03;1.80;99.90
59208;DHT22;44977;53.132;6.408;2024-01-15T01:02:03;1.80;99.90
59208;DHT22;44977;53.132;6.408;2024-01-15T01:07:04;1.80;99.90
59208;DHT22;44977;53.132;6.408;2024-01-15T01:12:05;1.80;99.90
59208;DHT22;44977;53.132;6.408;2024-01-15T01:17:06;1.90;99.90
59208;DHT22;44977;53.132;6.408;2024-01-15T01:22:08;1.90;99.90
59208;DHT22;44977;53.132;6.408;2024-01-15T01:27:08;2.10;99.90
59208;DHT22;44977;53.132;6.408;2024-01-15T01:32:09;2.10;99.90
59208;DHT22;44977;53.132;6.408;2024-01-15T01:37:10;2.20;99.90
59208;DHT22;44977;53.132;6.408;2024-01-15T01:42:15;2.20;99.90
59208;DHT22;44977;53.132;6.408;2024-01-15T01:47:15;2.20;99.90
59208;DHT22;44977;53.132;6.408;2024-01-15T01:52:16;2.10;99.90
59208;DHT22;44977;53.132;6.408;2024-01-15T01:57:17;2.10;99.90
59208;DHT22;44977;53.132;6.408;2024-01-15T02:02:18;2.10;99.90
59208;DHT22;44977;53.132;6.408;2024-01-15T02:07:20;2.20;99.90
59208;DHT22;44977;53.132;6.408;2024-01-15T02:12:21;2.10;99.90
59208;DHT22;44977;53.132;6.408;2024-01-15T02:17:22;2.10;99.90
59208;DHT22;44977;53.132;6.408;2024-01-15T02:22:23;2.10;99.90
59208;DHT22;44977;53.132;6.408;2024-01-15T02:27:23;2.00;99.90
59208;DHT22;44977;53.132;6.408;2024-01-15T02:32:24;2.00;99.90
59208;DHT22;44977;53.132;6.408;2024-01-15T02:37:25;1.90;99.90
59208;DHT22;44977;53.132;6.408;2024-01-15T02:42:26;1.90;99.90
59208;DHT22;44977;53.132;6.408;2024-01-15T02:47:27;1.90;99.90
59208;DHT22;44977;53.132;6.408;2024-01-15T02:52:27;1.90;99.90
59208;DHT22;44977;53.132;6.408;2024-01-15T02:57:28;1.90;99.90
59208;DHT22;44977;53.132;6.408;2024-01-15T03:02:29;2.00;99.90
59208;DHT22;44977;53.132;6.408;2024-01-15T03:07:31;2.00;99.90
59208;DHT22;44977;53.132;6.408;2024-01-15T03:12:32;2.00;99.90
59208;DHT22;44977;53.132;6.408;2024-01-15T03:17:33;2.00;99.90
59208;DHT22;44977;53.132;6.408;2024-01-15T03:22:34;2.10;99.90
59208;DHT22;44977;53.132;6.408;2024-01-15T03:27:34;2.10;99.90
59208;DHT22;44977;53.132;6.408;2024-01-15T03:32:35;2.10;99.90
59208;DHT22;44977;53.132;6.408;2024-01-15T03:37:36;2.10;99.90
59208;DHT22;44977;53.132;6.408;2024-01-15T03:42:36;2.10;99.90
59208;DHT22;44977;53.132;6.408;2024-01-15T03:47:37;2.10;99.90
59208;DHT22;44977;53.132;6.408;2024-01-15T03:52:38;2.20;99.90
59208;DHT22;44977;53.132;6.408;2024-01-15T03:57:38;2.10;99.90
59208;DHT22;44977;53.132;6.408;2024-01-15T04:02:39;2.10;99.90
59208;DHT22;44977;53.132;6.408;2024-01-15T04:07:40;2.10;99.90
59208;DHT22;44977;53.132;6.408;2024-01-15T04:12:40;2.10;99.90
59208;DHT22;44977;53.132;6.408;2024-01-15T04:17:41;2.10;99.90
59208;DHT22;44977;53.132;6.408;2024-01-15T04:22:42;2.20;99.90
59208;DHT22;44977;53.132;6.408;2024-01-15T04:27:44;2.10;99.90
59208;DHT22;44977;53.132;6.408;2024-01-15T04:32:44;2.00;99.90
59208;DHT22;44977;53.132;6.408;2024-01-15T04:37:45;1.90;99.90
59208;DHT22;44977;53.132;6.408;2024-01-15T04:42:46;1.80;99.90
59208;DHT22;44977;53.132;6.408;2024-01-15T04:47:46;1.80;99.90
59208;DHT22;44977;53.132;6.408;2024-01-15T04:52:47;1.80;99.90
59208;DHT22;44977;53.132;6.408;2024-01-15T04:57:48;1.70;99.90
59208;DHT22;44977;53.132;6.408;2024-01-15T05:02:48;1.70;99.90
59208;DHT22;44977;53.132;6.408;2024-01-15T05:07:49;1.70;99.90
59208;DHT22;44977;53.132;6.408;2024-01-15T05:12:50;1.60;99.90
59208;DHT22;44977;53.132;6.408;2024-01-15T05:17:50;1.60;99.90
59208;DHT22;44977;53.132;6.408;2024-01-15T05:22:51;1.70;99.90
59208;DHT22;44977;53.132;6.408;2024-01-15T05:27:52;1.70;99.90
59208;DHT22;44977;53.132;6.408;2024-01-15T05:32:52;1.70;99.90
59208;DHT22;44977;53.132;6.408;2024-01-15T05:37:53;1.70;99.90
59208;DHT22;44977;53.132;6.408;2024-01-15T05:42:54;1.70;99.90
59208;DHT22;44977;53.132;6.408;2024-01-15T05:47:54;1.70;99.90
59208;DHT22;44977;53.132;6.408;2024-01-15T05:52:56;1.70;99.90
59208;DHT22;44977;53.132;6.408;2024-01-15T05:57:57;1.60;99.90
59208;DHT22;44977;53.132;6.408;2024-01-15T06:02:57;1.60;99.90
59208;DHT22;44977;53.132;6.408;2024-01-15T06:07:58;1.60;99.90
59208;DHT22;44977;53.132;6.408;2024-01-15T06:12:59;1.60;99.90
59208;DHT22;44977;53.132;6.408;2024-01-15T06:17:59;1.60;99.90
59208;DHT22;44977;53.132;6.408;2024-01-15T06:23:00;1.50;99.90
59208;DHT22;44977;53.132;6.408;2024-01-15T06:28:00;1.50;99.90
59208;DHT22;44977;53.132;6.408;2024-01-15T06:33:01;1.50;99.90
59208;DHT22;44977;53.132;6.408;2024-01-15T06:38:02;1.50;99.90
59208;DHT22;44977;53.132;6.408;2024-01-15T06:43:03;1.50;99.90
59208;DHT22;44977;53.132;6.408;2024-01-15T06:48:04;1.50;99.90
59208;DHT22;44977;53.132;6.408;2024-01-15T06:53:05;1.50;99.90
59208;DHT22;44977;53.132;6.408;2024-01-15T06:58:06;1.60;99.90
59208;DHT22;44977;53.132;6.408;2024-01-15T07:03:06;1.50;99.90
59208;DHT22;44977;53.132;6.408;2024-01-15T07:08:07;1.60;99.90
59208;DHT22;44977;53.132;6.408;2024-01-15T07:13:08;1.60;99.90
59208;DHT22;44977;53.132;6.408;2024-01-15T07:18:09;1.50;99.90
59208;DHT22;44977;53.132;6.408;2024-01-15T07:23:10;1.60;99.90
59208;DHT22;44977;53.132;6.408;2024-01-15T07:28:10;1.50;99.90
59208;DHT22;44977;53.132;6.408;2024-01-15T07:33:14;1.50;99.90
59208;DHT22;44977;53.132;6.408;2024-01-15T07:38:15;1.50;99.90
59208;DHT22;44977;53.132;6.408;2024-01-15T07:43:15;1.50;99.90
59208;DHT22;44977;53.132;6.408;2024-01-15T07:48:16;1.50;99.90
59208;DHT22;44977;53.132;6.408;2024-01-15T07:53:17;1.50;99.90
59208;DHT22;44977;53.132;6.408;2024-01-15T07:58:17;1.60;99.90
59208;DHT22;44977;53.132;6.408;2024-01-15T08:03:18;1.50;99.90
59208;DHT22;44977;53.132;6.408;2024-01-15T08:08:19;1.60;99.90
59208;DHT22;44977;53.132;6.408;2024-01-15T08:13:21;1.60;99.90
59208;DHT22;44977;53.132;6.408;2024-01-15T08:18:22;1.50;99.90
59208;DHT22;44977;53.132;6.408;2024-01-15T08:23:23;1.50;99.90
59208;DHT22;44977;53.132;6.408;2024-01-15T08:28:25;1.50;99.90
59208;DHT22;44977;53.132;6.408;2024-01-15T08:33:25;1.50;99.90
59208;DHT22;44977;53.132;6.408;2024-01-15T08:38:26;1.50;99.90
59208;DHT22;44977;53.132;6.408;2024-01-15T08:43:27;1.50;99.90
59208;DHT22;44977;53.132;6.408;2024-01-15T08:48:28;1.60;99.90
59208;DHT22;44977;53.132;6.408;2024-01-15T08:53:29;1.60;99.90
59208;DHT22;44977;53.132;6.408;2024-01-15T08:58:29;1.80;99.90
59208;DHT22;44977;53.132;6.408;2024-01-15T09:03:30;1.80;99.90
59208;DHT22;44977;53.132;6.408;2024-01-15T09:08:31;1.80;99.90
59208;DHT22;44977;53.132;6.408;2024-01-15T09:13:31;1.80;99.90
59208;DHT22;44977;53.132;6.408;2024-01-15T09:18:32;1.70;99.90
59208;DHT22;44977;53.132;6.408;2024-01-15T09:23:33;1.70;99.90
59208;DHT22;44977;53.132;6.408;2024-01-15T09:28:34;1.70;99.90
59208;DHT22;44977;53.132;6.408;2024-01-15T09:33:35;1.80;99.90
59208;DHT22;44977;53.132;6.408;2024-01-15T09:38:35;1.80;99.90
59208;DHT22;44977;53.132;6.408;2024-01-15T09:43:37;1.80;99.90
59208;DHT22;44977;53.132;6.408;2024-01-15T09:48:38;1.80;99.90
59208;DHT22;44977;53.132;6.408;2024-01-15T09:53:40;1.80;99.90
59208;DHT22;44977;53.132;6.408;2024-01-15T09:58:41;1.80;99.90
59208;DHT22;44977;53.132;6.408;2024-01-15T10:03:43;1.80;99.90
59208;DHT22;44977;53.132;6.408;2024-01-15T10:08:51;1.90;99.90
59208;DHT22;44977;53.132;6.408;2024-01-15T10:13:52;1.90;99.90
59208;DHT22;44977;53.132;6.408;2024-01-15T10:18:54;2.10;99.90
59208;DHT22;44977;53.132;6.408;2024-01-15T10:23:55;2.20;99.90
59208;DHT22;44977;53.132;6.408;2024-01-15T10:28:55;2.30;99.90
59208;DHT22;44977;53.132;6.408;2024-01-15T10:34:10;2.40;99.90
59208;DHT22;44977;53.132;6.408;2024-01-15T10:39:13;2.40;99.90
59208;DHT22;44977;53.132;6.408;2024-01-15T10:44:14;2.40;99.90
59208;DHT22;44977;53.132;6.408;2024-01-15T10:49:15;2.40;99.90
59208;DHT22;44977;53.132;6.408;2024-01-15T10:54:16;2.30;99.90
59208;DHT22;44977;53.132;6.408;2024-01-15T10:59:21;2.20;99.90
59208;DHT22;44977;53.132;6.408;2024-01-15T11:04:25;2.20;99.90
59208;DHT22;44977;53.132;6.408;2024-01-15T11:09:28;2.20;99.90
59208;DHT22;44977;53.132;6.408;2024-01-15T11:15:00;2.30;99.90
59208;DHT22;44977;53.132;6.408;2024-01-15T11:19:58;2.20;99.90
59208;DHT22;44977;53.132;6.408;2024-01-15T11:25:03;2.20;99.90
59208;DHT22;44977;53.132;6.408;2024-01-15T11:30:08;2.20;99.90
59208;DHT22;44977;53.132;6.408;2024-01-15T11:35:10;2.20;99.90
59208;DHT22;44977;53.132;6.408;2024-01-15T11:40:11;2.20;99.90
59208;DHT22;44977;53.132;6.408;2024-01-15T11:45:16;2.10;99.90
59208;DHT22;44977;53.132;6.408;2024-01-15T11:50:18;2.00;99.90
59208;DHT22;44977;53.132;6.408;2024-01-15T11:55:26;2.00;99.90
59208;DHT22;44977;53.132;6.408;2024-01-15T12:00:29;1.80;99.90
59208;DHT22;44977;53.132;6.408;2024-01-15T12:05:30;1.70;99.90
59208;DHT22;44977;53.132;6.408;2024-01-15T12:10:31;1.70;99.90
59208;DHT22;44977;53.132;6.408;2024-01-15T12:15:32;1.80;99.90
59208;DHT22;44977;53.132;6.408;2024-01-15T12:20:33;1.80;99.90
59208;DHT22;44977;53.132;6.408;2024-01-15T12:25:34;1.80;99.90
59208;DHT22;44977;53.132;6.408;2024-01-15T12:30:36;1.90;99.90
59208;DHT22;44977;53.132;6.408;2024-01-15T12:35:37;1.90;99.90
59208;DHT22;44977;53.132;6.408;2024-01-15T12:40:38;2.00;99.90
59208;DHT22;44977;53.132;6.408;2024-01-15T12:45:39;2.00;99.90
59208;DHT22;44977;53.132;6.408;2024-01-15T12:50:42;2.10;99.90
59208;DHT22;44977;53.132;6.408;2024-01-15T12:55:44;2.20;99.90
59208;DHT22;44977;53.132;6.408;2024-01-15T13:00:44;2.30;99.90
59208;DHT22;44977;53.132;6.408;2024-01-15T13:05:45;2.20;99.90
59208;DHT22;44977;53.132;6.408;2024-01-15T13:10:46;2.30;99.90
59208;DHT22;44977;53.132;6.408;2024-01-15T13:15:46;2.40;99.90
59208;DHT22;44977;53.132;6.408;2024-01-15T13:20:47;2.30;99.90
59208;DHT22;44977;53.132;6.408;2024-01-15T13:25:49;2.20;99.90
59208;DHT22;44977;53.132;6.408;2024-01-15T13:30:50;2.20;99.90
59208;DHT22;44977;53.132;6.408;2024-01-15T13:35:51;2.20;99.90
59208;DHT22;44977;53.132;6.408;2024-01-15T13:40:51;2.20;99.90
59208;DHT22;44977;53.132;6.408;2024-01-15T13:45:52;2.20;99.90
59208;DHT22;44977;53.132;6.408;2024-01-15T13:50:54;2.20;99.90
59208;DHT22;44977;53.132;6.408;2024-01-15T13:55:55;2.40;99.90
59208;DHT22;44977;53.132;6.408;2024-01-15T14:00:55;2.40;99.90
59208;DHT22;44977;53.132;6.408;2024-01-15T14:05:56;2.40;99.90
59208;DHT22;44977;53.132;6.408;2024-01-15T14:10:57;2.40;99.90
59208;DHT22;44977;53.132;6.408;2024-01-15T14:15:58;2.40;99.90
59208;DHT22;44977;53.132;6.408;2024-01-15T14:20:58;2.40;99.90
59208;DHT22;44977;53.132;6.408;2024-01-15T14:25:59;2.30;99.90
59208;DHT22;44977;53.132;6.408;2024-01-15T14:31:00;2.40;99.90
59208;DHT22;44977;53.132;6.408;2024-01-15T14:36:00;2.40;99.90
59208;DHT22;44977;53.132;6.408;2024-01-15T14:41:01;2.50;99.90
59208;DHT22;44977;53.132;6.408;2024-01-15T14:46:02;2.50;99.90
59208;DHT22;44977;53.132;6.408;2024-01-15T14:51:03;2.50;99.90
59208;DHT22;44977;53.132;6.408;2024-01-15T14:56:03;2.50;99.90
59208;DHT22;44977;53.132;6.408;2024-01-15T15:01:04;2.60;99.90
59208;DHT22;44977;53.132;6.408;2024-01-15T15:06:06;2.40;99.90
59208;DHT22;44977;53.132;6.408;2024-01-15T15:11:09;2.30;99.90
59208;DHT22;44977;53.132;6.408;2024-01-15T15:16:12;2.10;99.90
59208;DHT22;44977;53.132;6.408;2024-01-15T15:21:12;2.00;99.90
59208;DHT22;44977;53.132;6.408;2024-01-15T15:26:13;1.90;99.90
59208;DHT22;44977;53.132;6.408;2024-01-15T15:31:14;1.80;99.90
59208;DHT22;44977;53.132;6.408;2024-01-15T15:36:15;1.70;99.90
59208;DHT22;44977;53.132;6.408;2024-01-15T15:41:15;1.70;99.90
59208;DHT22;44977;53.132;6.408;2024-01-15T15:46:16;1.70;99.90
59208;DHT22;44977;53.132;6.408;2024-01-15T15:51:17;1.70;99.90
59208;DHT22;44977;53.132;6.408;2024-01-15T15:56:17;1.70;99.90
59208;DHT22;44977;53.132;6.408;2024-01-15T16:01:18;1.60;99.90
59208;DHT22;44977;53.132;6.408;2024-01-15T16:06:19;1.60;99.90
59208;DHT22;44977;53.132;6.408;2024-01-15T16:11:20;1.60;99.90
59208;DHT22;44977;53.132;6.408;2024-01-15T16:16:21;1.60;99.90
59208;DHT22;44977;53.132;6.408;2024-01-15T16:21:22;1.60;99.90
59208;DHT22;44977;53.132;6.408;2024-01-15T16:26:23;1.70;99.90
59208;DHT22;44977;53.132;6.408;2024-01-15T16:31:23;1.70;99.90
59208;DHT22;44977;53.132;6.408;2024-01-15T16:36:24;1.70;99.90
59208;DHT22;44977;53.132;6.408;2024-01-15T16:41:25;1.70;99.90
59208;DHT22;44977;53.132;6.408;2024-01-15T16:46:26;1.60;99.90
59208;DHT22;44977;53.132;6.408;2024-01-15T16:51:26;1.60;99.90
59208;DHT22;44977;53.132;6.408;2024-01-15T16:56:27;1.50;99.90
59208;DHT22;44977;53.132;6.408;2024-01-15T17:01:28;1.60;99.90
59208;DHT22;44977;53.132;6.408;2024-01-15T17:06:29;1.50;99.90
59208;DHT22;44977;53.132;6.408;2024-01-15T17:11:29;1.50;99.90
59208;DHT22;44977;53.132;6.408;2024-01-15T17:16:30;1.50;99.90
59208;DHT22;44977;53.132;6.408;2024-01-15T17:21:33;1.50;99.90
59208;DHT22;44977;53.132;6.408;2024-01-15T17:26:34;1.50;99.90
59208;DHT22;44977;53.132;6.408;2024-01-15T17:31:35;1.40;99.90
59208;DHT22;44977;53.132;6.408;2024-01-15T17:36:36;1.40;99.90
59208;DHT22;44977;53.132;6.408;2024-01-15T17:41:36;1.40;99.90
59208;DHT22;44977;53.132;6.408;2024-01-15T17:46:37;1.50;99.90
59208;DHT22;44977;53.132;6.408;2024-01-15T17:51:38;1.50;99.90
59208;DHT22;44977;53.132;6.408;2024-01-15T17:56:38;1.50;99.90
59208;DHT22;44977;53.132;6.408;2024-01-15T18:01:40;1.40;99.90
59208;DHT22;44977;53.132;6.408;2024-01-15T18:06:43;1.40;99.90
59208;DHT22;44977;53.132;6.408;2024-01-15T18:11:44;1.30;99.90
59208;DHT22;44977;53.132;6.408;2024-01-15T18:16:44;1.40;99.90
59208;DHT22;44977;53.132;6.408;2024-01-15T18:21:48;1.30;99.90
59208;DHT22;44977;53.132;6.408;2024-01-15T18:26:51;1.30;99.90
59208;DHT22;44977;53.132;6.408;2024-01-15T18:31:54;1.20;99.90
59208;DHT22;44977;53.132;6.408;2024-01-15T18:36:55;1.30;99.90
59208;DHT22;44977;53.132;6.408;2024-01-15T18:41:56;1.30;99.90
59208;DHT22;44977;53.132;6.408;2024-01-15T18:46:57;1.30;99.90
59208;DHT22;44977;53.132;6.408;2024-01-15T18:51:58;1.30;99.90
59208;DHT22;44977;53.132;6.408;2024-01-15T18:56:58;1.30;99.90
59208;DHT22;44977;53.132;6.408;2024-01-15T19:01:59;1.30;99.90
59208;DHT22;44977;53.132;6.408;2024-01-15T19:07:00;1.30;99.90
59208;DHT22;44977;53.132;6.408;2024-01-15T19:12:01;1.30;99.90
59208;DHT22;44977;53.132;6.408;2024-01-15T19:17:02;1.30;99.90
59208;DHT22;44977;53.132;6.408;2024-01-15T19:22:04;1.30;99.90
59208;DHT22;44977;53.132;6.408;2024-01-15T19:27:05;1.30;99.90
59208;DHT22;44977;53.132;6.408;2024-01-15T19:32:06;1.40;99.90
59208;DHT22;44977;53.132;6.408;2024-01-15T19:37:07;1.40;99.90
59208;DHT22;44977;53.132;6.408;2024-01-15T19:42:07;1.30;99.90
59208;DHT22;44977;53.132;6.408;2024-01-15T19:47:08;1.20;99.90
59208;DHT22;44977;53.132;6.408;2024-01-15T19:52:09;1.20;99.90
59208;DHT22;44977;53.132;6.408;2024-01-15T19:57:10;1.20;99.90
59208;DHT22;44977;53.132;6.408;2024-01-15T20:02:11;1.20;99.90
59208;DHT22;44977;53.132;6.408;2024-01-15T20:07:12;1.20;99.90
59208;DHT22;44977;53.132;6.408;2024-01-15T20:12:13;1.20;99.90
59208;DHT22;44977;53.132;6.408;2024-01-15T20:17:13;1.20;99.90
59208;DHT22;44977;53.132;6.408;2024-01-15T20:22:14;1.20;99.90
59208;DHT22;44977;53.132;6.408;2024-01-15T20:27:15;1.20;99.90
59208;DHT22;44977;53.132;6.408;2024-01-15T20:32:16;1.10;99.90
59208;DHT22;44977;53.132;6.408;2024-01-15T20:37:18;1.10;99.90
59208;DHT22;44977;53.132;6.408;2024-01-15T20:42:19;1.10;99.90
59208;DHT22;44977;53.132;6.408;2024-01-15T20:47:20;1.10;99.90
59208;DHT22;44977;53.132;6.408;2024-01-15T20:52:21;1.10;99.90
59208;DHT22;44977;53.132;6.408;2024-01-15T20:57:22;1.10;99.90
59208;DHT22;44977;53.132;6.408;2024-01-15T21:02:22;1.10;99.90
59208;DHT22;44977;53.132;6.408;2024-01-15T21:07:23;1.10;99.90
59208;DHT22;44977;53.132;6.408;2024-01-15T21:12:24;1.10;99.90
59208;DHT22;44977;53.132;6.408;2024-01-15T21:17:25;1.10;99.90
59208;DHT22;44977;53.132;6.408;2024-01-15T21:22:26;1.10;99.90
59208;DHT22;44977;53.132;6.408;2024-01-15T21:27:30;1.10;99.90
59208;DHT22;44977;53.132;6.408;2024-01-15T21:32:30;1.10;99.90
59208;DHT22;44977;53.132;6.408;2024-01-15T21:37:31;1.10;99.90
59208;DHT22;44977;53.132;6.408;2024-01-15T21:42:32;1.00;99.90
59208;DHT22;44977;53.132;6.408;2024-01-15T21:47:36;1.20;99.90
59208;DHT22;44977;53.132;6.408;2024-01-15T21:52:37;1.10;99.90
59208;DHT22;44977;53.132;6.408;2024-01-15T21:57:39;1.10;99.90
59208;DHT22;44977;53.132;6.408;2024-01-15T22:02:40;1.00;99.90
59208;DHT22;44977;53.132;6.408;2024-01-15T22:07:42;1.00;99.90
59208;DHT22;44977;53.132;6.408;2024-01-15T22:12:43;1.00;99.90
59208;DHT22;44977;53.132;6.408;2024-01-15T22:17:44;0.90;99.90
59208;DHT22;44977;53.132;6.408;2024-01-15T22:22:45;0.90;99.90
59208;DHT22;44977;53.132;6.408;2024-01-15T22:27:46;0.80;99.90
59208;DHT22;44977;53.132;6.408;2024-01-15T22:32:46;0.70;99.90
59208;DHT22;44977;53.132;6.408;2024-01-15T22:37:47;0.70;99.90
59208;DHT22;44977;53.132;6.408;2024-01-15T22:42:48;0.60;99.90
59208;DHT22;44977;53.132;6.408;2024-01-15T22:47:49;0.60;99.90
59208;DHT22;44977;53.132;6.408;2024-01-15T22:52:49;0.60;99.90
59208;DHT22;44977;53.132;6.408;2024-01-15T22:57:51;0.60;99.90
59208;DHT22;44977;53.132;6.408;2024-01-15T23:02:52;0.50;99.90
59208;DHT22;44977;53.132;6.408;2024-01-15T23:07:57;0.60;99.90
59208;DHT22;44977;53.132;6.408;2024-01-15T23:12:58;0.70;99.90
59208;DHT22;44977;53.132;6.408;2024-01-15T23:17:59;0.60;99.90
59208;DHT22;44977;53.132;6.408;2024-01-15T23:23:00;0.60;99.90
59208;DHT22;44977;53.132;6.408;2024-01-15T23:28:01;0.60;99.90
59208;DHT22;44977;53.132;6.408;2024-01-15T23:33:02;0.50;99.90
59208;DHT22;44977;53.132;6.408;2024-01-15T23:38:02;0.50;99.90
59208;DHT22;44977;53.132;6.408;2024-01-15T23:43:03;0.40;99.90
59208;DHT22;44977;53.132;6.408;2024-01-15T23:48:04;0.40;99.90
59208;DHT22;44977;53.132;6.408;2024-01-15T23:53:06;0.40;99.90
59208;DHT22;44977;53.132;6.408;2024-01-15T23:58:06;0.30;99.90
